VA64 weather

Hill Top Airport
Amelia, Virginia, United States

Public forecast

Using degrees Fahrenheit for public forecast. Weather courtesy of forecast.io.

METAR (pilot weather report)

Closest report is Crewe Municipal Airport, 15.7 nm (29.1 km) SSW. Retrieved 2019/09/22 11:35 UTC (9 minutes ago):

KW81 221135Z AUTO 00000KT 10SM CLR 17/16 A3018 RMK AO1 T01690155

TAF (pilot weather forecast)

Closest forecast is Richmond International Airport, 30.7 nm (56.8 km) E. Retrieved 2019/09/22 06:30 UTC (5 hours ago):

TAF KRIC 220527Z 2206/2306 18003KT P6SM SCT100 FM221200 19004KT P6SM SCT150 FM221800 18008KT P6SM SCT060 FM230000 17006KT P6SM SKC